Time;durP1;ratioP1;P1;durP2;ratioP2;P2;SDS_P1;SDS_P2;PMS_P1;PMS_P2;Temp;Humidity;BMP_temperature;BMP_pressure;BME280_temperature;BME280_humidity;BME280_pressure;Samples;Min_cycle;Max_cycle;Signal;HPM_P1;HPM_P2
2023/12/22 00:04:06;;;;;;;;;;;8.10;99.90;;;;;;20931684;28;19909;-78
2023/12/22 00:14:07;;;;;;;;;;;8.10;99.90;;;;;;20895991;28;19912;-77
2023/12/22 00:24:07;;;;;;;;;;;8.10;99.90;;;;;;20898236;28;20400;-77
2023/12/22 00:34:08;;;;;;;;;;;8.10;99.90;;;;;;20889057;28;19912;-77
2023/12/22 00:44:09;;;;;;;;;;;8.10;99.90;;;;;;20923367;28;20265;-78
2023/12/22 00:54:09;;;;;;;;;;;8.10;99.90;;;;;;20951406;28;19922;-77
2023/12/22 01:04:10;;;;;;;;;;;8.00;99.90;;;;;;20932067;28;19909;-78
2023/12/22 01:14:12;;;;;;;;;;;7.90;99.90;;;;;;20954560;28;19913;-77
2023/12/22 01:24:13;;;;;;;;;;;7.80;99.90;;;;;;20938226;28;19909;-78
2023/12/22 01:34:14;;;;;;;;;;;7.60;99.90;;;;;;20944771;28;19912;-78
2023/12/22 01:44:14;;;;;;;;;;;7.50;99.90;;;;;;20941786;28;19909;-78
2023/12/22 01:54:15;;;;;;;;;;;7.60;99.90;;;;;;20946682;28;19950;-77
2023/12/22 02:04:17;;;;;;;;;;;7.60;99.90;;;;;;20922186;28;19921;-77
2023/12/22 02:14:18;;;;;;;;;;;7.50;99.90;;;;;;20941960;28;19919;-78
2023/12/22 02:24:19;;;;;;;;;;;7.60;99.90;;;;;;20925182;28;19908;-78
2023/12/22 02:34:19;;;;;;;;;;;7.50;99.90;;;;;;20904097;28;19953;-78
2023/12/22 02:44:20;;;;;;;;;;;7.50;99.90;;;;;;20909077;28;19913;-78
2023/12/22 02:54:21;;;;;;;;;;;7.50;99.90;;;;;;20902706;28;19919;-78
2023/12/22 03:04:21;;;;;;;;;;;7.50;99.90;;;;;;20930913;28;19909;-78
2023/12/22 03:14:22;;;;;;;;;;;7.50;99.90;;;;;;20947634;28;19913;-78
2023/12/22 03:24:23;;;;;;;;;;;7.40;99.90;;;;;;20925976;28;20538;-78
2023/12/22 03:34:24;;;;;;;;;;;7.40;99.90;;;;;;20936738;28;19912;-78
2023/12/22 03:44:24;;;;;;;;;;;7.50;99.90;;;;;;20944951;28;20373;-78
2023/12/22 03:54:25;;;;;;;;;;;7.50;99.90;;;;;;20943137;28;19912;-76
2023/12/22 04:04:27;;;;;;;;;;;7.50;99.90;;;;;;20943725;28;20292;-77
2023/12/22 04:14:28;;;;;;;;;;;7.40;99.90;;;;;;20941610;28;20019;-77
2023/12/22 04:24:29;;;;;;;;;;;7.40;99.90;;;;;;20941429;28;20362;-78
2023/12/22 04:34:29;;;;;;;;;;;7.20;99.90;;;;;;20940209;28;19917;-77
2023/12/22 04:44:30;;;;;;;;;;;7.20;99.90;;;;;;20940861;28;19909;-77
2023/12/22 04:54:30;;;;;;;;;;;7.20;99.90;;;;;;20942240;28;19976;-78
2023/12/22 05:04:31;;;;;;;;;;;7.20;99.90;;;;;;20894914;28;19952;-77
2023/12/22 05:14:32;;;;;;;;;;;7.30;99.90;;;;;;20901757;28;19967;-77
2023/12/22 05:24:32;;;;;;;;;;;7.20;99.90;;;;;;20912783;28;20313;-77
2023/12/22 05:34:33;;;;;;;;;;;7.30;99.90;;;;;;20907143;28;19916;-78
2023/12/22 05:44:34;;;;;;;;;;;7.20;99.90;;;;;;20903179;28;19976;-78
2023/12/22 05:54:35;;;;;;;;;;;7.30;99.90;;;;;;20912497;28;20581;-77
2023/12/22 06:04:36;;;;;;;;;;;7.30;99.90;;;;;;20947834;28;19961;-77
2023/12/22 06:14:36;;;;;;;;;;;7.20;99.90;;;;;;20938853;28;19912;-77
2023/12/22 06:24:37;;;;;;;;;;;7.10;99.90;;;;;;20940597;28;19908;-77
2023/12/22 06:34:38;;;;;;;;;;;7.10;99.90;;;;;;20942651;28;20357;-78
2023/12/22 06:44:41;;;;;;;;;;;7.10;99.90;;;;;;20944070;28;19908;-77
2023/12/22 06:54:41;;;;;;;;;;;7.20;99.90;;;;;;20915716;28;19986;-77
2023/12/22 07:05:09;;;;;;;;;;;7.30;99.90;;;;;;20903218;28;19908;-77
2023/12/22 07:15:10;;;;;;;;;;;7.30;99.90;;;;;;20955178;28;19913;-79
2023/12/22 07:25:11;;;;;;;;;;;7.30;99.90;;;;;;20934112;28;20373;-76
2023/12/22 07:35:12;;;;;;;;;;;7.20;99.90;;;;;;20930547;28;19935;-77
2023/12/22 07:45:12;;;;;;;;;;;7.20;99.90;;;;;;20924229;28;19940;-77
2023/12/22 07:55:15;;;;;;;;;;;7.30;99.90;;;;;;20923749;28;19919;-78
2023/12/22 08:05:16;;;;;;;;;;;7.30;99.90;;;;;;20923391;28;19909;-78
2023/12/22 08:15:17;;;;;;;;;;;7.30;99.90;;;;;;20923140;28;20022;-78
2023/12/22 08:25:20;;;;;;;;;;;7.30;99.90;;;;;;20928104;28;19935;-78
2023/12/22 08:35:20;;;;;;;;;;;7.40;99.90;;;;;;20888961;28;19916;-77
2023/12/22 08:45:21;;;;;;;;;;;7.50;99.90;;;;;;20922146;28;19908;-78
2023/12/22 08:55:22;;;;;;;;;;;7.40;99.90;;;;;;20900852;28;19912;-77
2023/12/22 09:05:23;;;;;;;;;;;7.50;99.90;;;;;;20899580;28;19999;-77
2023/12/22 09:15:24;;;;;;;;;;;7.50;99.90;;;;;;20916137;28;19912;-77
2023/12/22 09:25:26;;;;;;;;;;;7.60;99.90;;;;;;20927503;28;19931;-77
2023/12/22 09:35:27;;;;;;;;;;;7.70;99.90;;;;;;20919768;28;20293;-76
2023/12/22 09:45:30;;;;;;;;;;;7.80;99.90;;;;;;20913550;28;20004;-78
2023/12/22 09:55:31;;;;;;;;;;;7.80;99.90;;;;;;20914609;28;19998;-78
2023/12/22 10:05:33;;;;;;;;;;;7.80;99.90;;;;;;20912966;28;19952;-77
2023/12/22 10:15:33;;;;;;;;;;;7.90;99.90;;;;;;20900418;28;19928;-78
2023/12/22 10:25:34;;;;;;;;;;;7.70;99.90;;;;;;20913259;28;19991;-78
2023/12/22 10:35:35;;;;;;;;;;;7.70;99.90;;;;;;20935806;28;19913;-78
2023/12/22 10:45:35;;;;;;;;;;;7.70;99.90;;;;;;20928457;28;20373;-78
2023/12/22 10:55:36;;;;;;;;;;;7.90;99.90;;;;;;20918698;28;19944;-78
2023/12/22 11:05:37;;;;;;;;;;;7.80;99.90;;;;;;20920871;28;19909;-77
2023/12/22 11:15:38;;;;;;;;;;;7.70;99.90;;;;;;20895367;28;19913;-77
2023/12/22 11:25:40;;;;;;;;;;;7.60;99.90;;;;;;20906742;28;20611;-77
2023/12/22 11:35:41;;;;;;;;;;;7.70;99.90;;;;;;20908202;28;19921;-77
2023/12/22 11:45:43;;;;;;;;;;;7.80;99.90;;;;;;20906195;28;19955;-77
2023/12/22 11:56:07;;;;;;;;;;;8.00;99.90;;;;;;20902957;28;19970;-77
2023/12/22 12:06:26;;;;;;;;;;;8.00;99.90;;;;;;20905455;28;19908;-78
2023/12/22 12:16:28;;;;;;;;;;;8.10;99.90;;;;;;20901788;28;20331;-77
2023/12/22 12:26:29;;;;;;;;;;;8.10;99.90;;;;;;20907765;28;19916;-77
2023/12/22 12:36:30;;;;;;;;;;;8.20;99.90;;;;;;20903608;28;20305;-77
2023/12/22 12:46:34;;;;;;;;;;;8.20;99.90;;;;;;20893851;28;19959;-76
2023/12/22 12:56:39;;;;;;;;;;;8.30;99.90;;;;;;20899342;28;19924;-78
2023/12/22 13:06:46;;;;;;;;;;;8.50;99.90;;;;;;20907133;28;20366;-76
2023/12/22 13:16:47;;;;;;;;;;;8.60;99.90;;;;;;20903304;28;19958;-77
2023/12/22 13:26:58;;;;;;;;;;;8.80;99.90;;;;;;20901001;28;19908;-77
2023/12/22 13:36:59;;;;;;;;;;;8.80;99.90;;;;;;20901774;28;20032;-76
2023/12/22 13:47:03;;;;;;;;;;;8.70;99.90;;;;;;20886679;28;20511;-77
2023/12/22 13:57:04;;;;;;;;;;;8.70;99.90;;;;;;20907953;28;20364;-77
2023/12/22 14:07:04;;;;;;;;;;;8.80;99.90;;;;;;20889150;28;19947;-77
2023/12/22 14:17:05;;;;;;;;;;;8.90;99.90;;;;;;20918704;28;19912;-77
2023/12/22 14:27:05;;;;;;;;;;;9.00;99.90;;;;;;20914657;28;19936;-77
2023/12/22 14:37:06;;;;;;;;;;;9.10;99.90;;;;;;20914158;28;19951;-77
2023/12/22 14:47:07;;;;;;;;;;;9.00;99.90;;;;;;20914579;28;19908;-77
2023/12/22 14:57:07;;;;;;;;;;;9.10;99.90;;;;;;20885417;28;19919;-77
2023/12/22 15:07:08;;;;;;;;;;;9.20;99.90;;;;;;20903156;28;19948;-77
2023/12/22 15:17:09;;;;;;;;;;;9.10;99.90;;;;;;20898070;28;20419;-78
2023/12/22 15:27:11;;;;;;;;;;;8.90;99.90;;;;;;20909813;28;20366;-77
2023/12/22 15:37:11;;;;;;;;;;;8.60;99.90;;;;;;20900386;28;19921;-77
2023/12/22 15:47:12;;;;;;;;;;;8.70;99.90;;;;;;20894782;28;19935;-77
2023/12/22 15:57:13;;;;;;;;;;;8.60;99.90;;;;;;20905230;28;20392;-79
2023/12/22 16:07:13;;;;;;;;;;;8.60;99.90;;;;;;20867703;28;19916;-77
2023/12/22 16:17:14;;;;;;;;;;;8.50;99.90;;;;;;20882537;28;20011;-76
2023/12/22 16:27:15;;;;;;;;;;;8.50;99.90;;;;;;20891923;28;19939;-78
2023/12/22 16:37:16;;;;;;;;;;;8.40;99.90;;;;;;20916244;28;19913;-79
2023/12/22 16:47:16;;;;;;;;;;;8.40;99.90;;;;;;20913029;28;19917;-77
2023/12/22 16:57:17;;;;;;;;;;;8.30;99.90;;;;;;20903167;28;19932;-78
2023/12/22 17:07:17;;;;;;;;;;;8.40;99.90;;;;;;20917049;28;19954;-79
2023/12/22 17:17:18;;;;;;;;;;;8.40;99.90;;;;;;20926213;28;19913;-79
2023/12/22 17:27:19;;;;;;;;;;;8.40;99.90;;;;;;20913303;28;19962;-78
2023/12/22 17:37:19;;;;;;;;;;;8.40;99.90;;;;;;20938530;28;19913;-79
2023/12/22 17:47:20;;;;;;;;;;;8.40;99.90;;;;;;20935681;28;19955;-78
2023/12/22 17:57:20;;;;;;;;;;;8.40;99.90;;;;;;20925576;28;20435;-78
2023/12/22 18:07:21;;;;;;;;;;;8.50;99.90;;;;;;20932256;28;19916;-78
2023/12/22 18:17:22;;;;;;;;;;;8.40;99.90;;;;;;20936136;28;19913;-79
2023/12/22 18:27:23;;;;;;;;;;;8.40;99.90;;;;;;20939852;28;19917;-78
2023/12/22 18:37:23;;;;;;;;;;;8.40;99.90;;;;;;20921244;28;19916;-78
2023/12/22 18:47:29;;;;;;;;;;;8.40;99.90;;;;;;20907580;28;19915;-78
2023/12/22 18:57:30;;;;;;;;;;;8.40;99.90;;;;;;20925923;28;19920;-77
2023/12/22 19:07:30;;;;;;;;;;;8.40;99.90;;;;;;20916848;28;20301;-75
2023/12/22 19:17:31;;;;;;;;;;;8.40;99.90;;;;;;20915151;28;19952;-75
2023/12/22 19:27:32;;;;;;;;;;;8.30;99.90;;;;;;20914068;28;20372;-74
2023/12/22 19:37:34;;;;;;;;;;;8.30;99.90;;;;;;20897443;28;19917;-76
2023/12/22 19:47:34;;;;;;;;;;;8.20;99.90;;;;;;20900962;28;20007;-77
2023/12/22 19:57:35;;;;;;;;;;;8.10;99.90;;;;;;20906979;28;19917;-77
2023/12/22 20:07:35;;;;;;;;;;;8.20;99.90;;;;;;20875023;28;19909;-77
2023/12/22 20:17:36;;;;;;;;;;;8.10;99.90;;;;;;20881145;28;19969;-77
2023/12/22 20:27:37;;;;;;;;;;;8.00;99.90;;;;;;20902888;28;20373;-77
2023/12/22 20:37:38;;;;;;;;;;;8.00;99.90;;;;;;20890082;28;19917;-77
2023/12/22 20:47:38;;;;;;;;;;;8.00;99.90;;;;;;20889409;28;19944;-77
2023/12/22 20:57:39;;;;;;;;;;;8.00;99.90;;;;;;20899974;28;19912;-77
2023/12/22 21:07:40;;;;;;;;;;;8.10;99.90;;;;;;20908216;28;19942;-77
2023/12/22 21:17:46;;;;;;;;;;;8.00;99.90;;;;;;20915350;28;20000;-76
2023/12/22 21:27:47;;;;;;;;;;;8.10;99.90;;;;;;20904335;28;20368;-77
2023/12/22 21:37:49;;;;;;;;;;;8.00;99.90;;;;;;20901117;28;19995;-77
2023/12/22 21:47:50;;;;;;;;;;;8.00;99.90;;;;;;20895552;28;19909;-76
2023/12/22 21:57:50;;;;;;;;;;;8.00;99.90;;;;;;20921082;28;20002;-77
2023/12/22 22:07:51;;;;;;;;;;;8.00;99.90;;;;;;20894417;28;19913;-76
2023/12/22 22:17:51;;;;;;;;;;;7.90;99.90;;;;;;20911132;28;19923;-76
2023/12/22 22:27:52;;;;;;;;;;;7.90;99.90;;;;;;20903836;28;19917;-76
2023/12/22 22:37:54;;;;;;;;;;;7.80;99.90;;;;;;20891061;28;19939;-76
2023/12/22 22:47:54;;;;;;;;;;;7.90;99.90;;;;;;20907612;28;19951;-77
2023/12/22 22:57:55;;;;;;;;;;;7.90;99.90;;;;;;20888537;28;19913;-76
2023/12/22 23:07:56;;;;;;;;;;;7.90;99.90;;;;;;20912082;28;20408;-77
2023/12/22 23:17:56;;;;;;;;;;;7.90;99.90;;;;;;20894827;28;20019;-78
2023/12/22 23:27:57;;;;;;;;;;;7.90;99.90;;;;;;20889495;28;20007;-77
2023/12/22 23:37:58;;;;;;;;;;;7.80;99.90;;;;;;20909690;28;20017;-77
2023/12/22 23:47:58;;;;;;;;;;;7.70;99.90;;;;;;20900954;28;19917;-77
2023/12/22 23:57:59;;;;;;;;;;;7.80;99.90;;;;;;20896104;28;19912;-77
